sensor_id;sensor_type;location;lat;lon;timestamp;P1;durP1;ratioP1;P2;durP2;ratioP2
28623;SDS011;15813;46.932;19.658;2022-11-04T00:01:20;42.33;;;21.13;;
28623;SDS011;15813;46.932;19.658;2022-11-04T00:03:45;44.00;;;21.27;;
28623;SDS011;15813;46.932;19.658;2022-11-04T00:06:11;43.30;;;21.30;;
28623;SDS011;15813;46.932;19.658;2022-11-04T00:08:36;48.88;;;22.58;;
28623;SDS011;15813;46.932;19.658;2022-11-04T00:11:01;49.30;;;20.92;;
28623;SDS011;15813;46.932;19.658;2022-11-04T00:13:45;48.47;;;21.80;;
28623;SDS011;15813;46.932;19.658;2022-11-04T00:16:10;46.17;;;22.02;;
28623;SDS011;15813;46.932;19.658;2022-11-04T00:18:54;52.10;;;23.65;;
28623;SDS011;15813;46.932;19.658;2022-11-04T00:21:20;47.88;;;21.65;;
28623;SDS011;15813;46.932;19.658;2022-11-04T00:24:04;47.33;;;22.95;;
28623;SDS011;15813;46.932;19.658;2022-11-04T00:26:48;54.65;;;23.88;;
28623;SDS011;15813;46.932;19.658;2022-11-04T00:29:32;50.20;;;25.10;;
28623;SDS011;15813;46.932;19.658;2022-11-04T00:31:57;54.37;;;25.73;;
28623;SDS011;15813;46.932;19.658;2022-11-04T00:34:41;60.15;;;25.25;;
28623;SDS011;15813;46.932;19.658;2022-11-04T00:37:06;50.17;;;23.63;;
28623;SDS011;15813;46.932;19.658;2022-11-04T00:39:31;55.45;;;24.98;;
28623;SDS011;15813;46.932;19.658;2022-11-04T00:41:56;54.53;;;23.93;;
28623;SDS011;15813;46.932;19.658;2022-11-04T00:44:22;57.80;;;25.53;;
28623;SDS011;15813;46.932;19.658;2022-11-04T00:46:47;60.75;;;26.45;;
28623;SDS011;15813;46.932;19.658;2022-11-04T00:49:12;55.33;;;26.52;;
28623;SDS011;15813;46.932;19.658;2022-11-04T00:51:37;54.03;;;24.90;;
28623;SDS011;15813;46.932;19.658;2022-11-04T00:54:03;50.67;;;25.15;;
28623;SDS011;15813;46.932;19.658;2022-11-04T00:56:28;49.75;;;24.45;;
28623;SDS011;15813;46.932;19.658;2022-11-04T00:58:54;55.17;;;24.83;;
28623;SDS011;15813;46.932;19.658;2022-11-04T01:01:19;54.55;;;25.35;;
28623;SDS011;15813;46.932;19.658;2022-11-04T01:03:45;55.08;;;22.98;;
28623;SDS011;15813;46.932;19.658;2022-11-04T01:06:10;56.72;;;23.50;;
28623;SDS011;15813;46.932;19.658;2022-11-04T01:08:36;55.53;;;25.13;;
28623;SDS011;15813;46.932;19.658;2022-11-04T01:11:04;54.78;;;23.75;;
28623;SDS011;15813;46.932;19.658;2022-11-04T01:13:29;52.83;;;23.67;;
28623;SDS011;15813;46.932;19.658;2022-11-04T01:15:58;53.97;;;23.80;;
28623;SDS011;15813;46.932;19.658;2022-11-04T01:18:23;56.40;;;25.55;;
28623;SDS011;15813;46.932;19.658;2022-11-04T01:20:49;59.28;;;24.15;;
28623;SDS011;15813;46.932;19.658;2022-11-04T01:23:14;48.37;;;23.70;;
28623;SDS011;15813;46.932;19.658;2022-11-04T01:25:39;63.85;;;25.15;;
28623;SDS011;15813;46.932;19.658;2022-11-04T01:28:05;54.92;;;25.58;;
28623;SDS011;15813;46.932;19.658;2022-11-04T01:30:30;60.50;;;26.60;;
28623;SDS011;15813;46.932;19.658;2022-11-04T01:32:56;59.47;;;26.40;;
28623;SDS011;15813;46.932;19.658;2022-11-04T01:35:21;91.80;;;27.73;;
28623;SDS011;15813;46.932;19.658;2022-11-04T01:37:46;74.47;;;26.52;;
28623;SDS011;15813;46.932;19.658;2022-11-04T01:40:11;102.33;;;26.93;;
28623;SDS011;15813;46.932;19.658;2022-11-04T01:42:37;112.38;;;26.88;;
28623;SDS011;15813;46.932;19.658;2022-11-04T01:45:02;62.10;;;25.02;;
28623;SDS011;15813;46.932;19.658;2022-11-04T01:52:44;87.90;;;25.75;;
28623;SDS011;15813;46.932;19.658;2022-11-04T01:55:16;87.43;;;26.50;;
28623;SDS011;15813;46.932;19.658;2022-11-04T01:57:44;60.38;;;25.50;;
28623;SDS011;15813;46.932;19.658;2022-11-04T02:00:10;78.95;;;26.60;;
28623;SDS011;15813;46.932;19.658;2022-11-04T02:02:37;116.18;;;28.17;;
28623;SDS011;15813;46.932;19.658;2022-11-04T02:05:03;86.10;;;26.08;;
28623;SDS011;15813;46.932;19.658;2022-11-04T02:07:28;64.40;;;23.98;;
28623;SDS011;15813;46.932;19.658;2022-11-04T02:09:55;90.57;;;25.67;;
28623;SDS011;15813;46.932;19.658;2022-11-04T02:12:20;56.15;;;23.52;;
28623;SDS011;15813;46.932;19.658;2022-11-04T02:15:04;52.78;;;23.33;;
28623;SDS011;15813;46.932;19.658;2022-11-04T02:17:43;71.15;;;25.13;;
28623;SDS011;15813;46.932;19.658;2022-11-04T02:34:47;57.55;;;23.15;;
28623;SDS011;15813;46.932;19.658;2022-11-04T02:37:14;72.97;;;23.73;;
28623;SDS011;15813;46.932;19.658;2022-11-04T02:39:49;51.63;;;23.55;;
28623;SDS011;15813;46.932;19.658;2022-11-04T02:44:45;49.25;;;23.65;;
28623;SDS011;15813;46.932;19.658;2022-11-04T02:52:41;65.05;;;25.55;;
28623;SDS011;15813;46.932;19.658;2022-11-04T02:55:10;50.67;;;23.02;;
28623;SDS011;15813;46.932;19.658;2022-11-04T02:57:37;45.03;;;22.67;;
28623;SDS011;15813;46.932;19.658;2022-11-04T03:00:07;56.75;;;22.73;;
28623;SDS011;15813;46.932;19.658;2022-11-04T03:02:35;51.40;;;22.25;;
28623;SDS011;15813;46.932;19.658;2022-11-04T03:05:02;58.57;;;24.10;;
28623;SDS011;15813;46.932;19.658;2022-11-04T03:07:28;47.42;;;22.92;;
28623;SDS011;15813;46.932;19.658;2022-11-04T03:09:56;50.72;;;21.55;;
28623;SDS011;15813;46.932;19.658;2022-11-04T03:12:24;57.90;;;24.60;;
28623;SDS011;15813;46.932;19.658;2022-11-04T03:14:52;46.05;;;21.23;;
28623;SDS011;15813;46.932;19.658;2022-11-04T03:17:22;48.58;;;21.98;;
28623;SDS011;15813;46.932;19.658;2022-11-04T03:22:17;48.33;;;22.17;;
28623;SDS011;15813;46.932;19.658;2022-11-04T03:24:43;48.17;;;22.85;;
28623;SDS011;15813;46.932;19.658;2022-11-04T03:34:49;59.88;;;24.58;;
28623;SDS011;15813;46.932;19.658;2022-11-04T03:37:15;52.20;;;22.33;;
28623;SDS011;15813;46.932;19.658;2022-11-04T03:39:40;52.42;;;24.63;;
28623;SDS011;15813;46.932;19.658;2022-11-04T03:42:07;55.17;;;23.33;;
28623;SDS011;15813;46.932;19.658;2022-11-04T03:44:47;50.17;;;23.08;;
28623;SDS011;15813;46.932;19.658;2022-11-04T03:47:13;59.67;;;24.20;;
28623;SDS011;15813;46.932;19.658;2022-11-04T03:49:39;53.08;;;23.48;;
28623;SDS011;15813;46.932;19.658;2022-11-04T03:52:04;54.72;;;24.48;;
28623;SDS011;15813;46.932;19.658;2022-11-04T03:54:29;53.42;;;24.33;;
28623;SDS011;15813;46.932;19.658;2022-11-04T03:59:49;56.50;;;24.23;;
28623;SDS011;15813;46.932;19.658;2022-11-04T04:04:55;53.30;;;24.48;;
28623;SDS011;15813;46.932;19.658;2022-11-04T04:07:34;63.88;;;27.50;;
28623;SDS011;15813;46.932;19.658;2022-11-04T04:10:36;56.95;;;25.75;;
28623;SDS011;15813;46.932;19.658;2022-11-04T04:15:41;61.40;;;25.38;;
28623;SDS011;15813;46.932;19.658;2022-11-04T04:18:09;55.15;;;24.05;;
28623;SDS011;15813;46.932;19.658;2022-11-04T04:20:37;67.53;;;25.95;;
28623;SDS011;15813;46.932;19.658;2022-11-04T04:23:10;68.07;;;24.45;;
28623;SDS011;15813;46.932;19.658;2022-11-04T04:25:56;57.88;;;24.38;;
28623;SDS011;15813;46.932;19.658;2022-11-04T04:28:42;64.60;;;25.80;;
28623;SDS011;15813;46.932;19.658;2022-11-04T04:31:09;71.78;;;27.40;;
28623;SDS011;15813;46.932;19.658;2022-11-04T04:33:37;54.50;;;25.05;;
28623;SDS011;15813;46.932;19.658;2022-11-04T04:36:02;67.40;;;26.52;;
28623;SDS011;15813;46.932;19.658;2022-11-04T04:38:30;71.78;;;30.38;;
28623;SDS011;15813;46.932;19.658;2022-11-04T04:41:28;63.53;;;26.90;;
28623;SDS011;15813;46.932;19.658;2022-11-04T04:44:14;53.75;;;25.23;;
28623;SDS011;15813;46.932;19.658;2022-11-04T04:46:59;67.65;;;26.50;;
28623;SDS011;15813;46.932;19.658;2022-11-04T04:49:26;55.38;;;25.45;;
28623;SDS011;15813;46.932;19.658;2022-11-04T04:51:59;55.95;;;25.77;;
28623;SDS011;15813;46.932;19.658;2022-11-04T04:54:24;59.47;;;27.20;;
28623;SDS011;15813;46.932;19.658;2022-11-04T04:56:50;65.77;;;27.77;;
28623;SDS011;15813;46.932;19.658;2022-11-04T04:59:15;68.13;;;28.40;;
28623;SDS011;15813;46.932;19.658;2022-11-04T05:01:40;64.22;;;27.15;;
28623;SDS011;15813;46.932;19.658;2022-11-04T05:04:05;60.15;;;26.05;;
28623;SDS011;15813;46.932;19.658;2022-11-04T05:06:31;60.28;;;24.95;;
28623;SDS011;15813;46.932;19.658;2022-11-04T05:08:56;50.08;;;23.23;;
28623;SDS011;15813;46.932;19.658;2022-11-04T05:11:21;55.60;;;24.48;;
28623;SDS011;15813;46.932;19.658;2022-11-04T05:13:46;47.40;;;24.20;;
28623;SDS011;15813;46.932;19.658;2022-11-04T05:16:12;55.03;;;25.58;;
28623;SDS011;15813;46.932;19.658;2022-11-04T05:18:37;55.47;;;26.58;;
28623;SDS011;15813;46.932;19.658;2022-11-04T05:21:06;53.30;;;23.38;;
28623;SDS011;15813;46.932;19.658;2022-11-04T05:23:33;48.58;;;24.67;;
28623;SDS011;15813;46.932;19.658;2022-11-04T05:25:58;57.70;;;25.60;;
28623;SDS011;15813;46.932;19.658;2022-11-04T05:28:23;50.78;;;24.35;;
28623;SDS011;15813;46.932;19.658;2022-11-04T05:30:49;50.20;;;24.15;;
28623;SDS011;15813;46.932;19.658;2022-11-04T05:33:14;57.45;;;25.30;;
28623;SDS011;15813;46.932;19.658;2022-11-04T05:35:39;49.17;;;23.87;;
28623;SDS011;15813;46.932;19.658;2022-11-04T05:38:04;63.03;;;27.52;;
28623;SDS011;15813;46.932;19.658;2022-11-04T05:40:30;50.47;;;24.80;;
28623;SDS011;15813;46.932;19.658;2022-11-04T05:42:56;48.95;;;23.55;;
28623;SDS011;15813;46.932;19.658;2022-11-04T05:45:21;51.72;;;23.63;;
28623;SDS011;15813;46.932;19.658;2022-11-04T05:47:46;48.40;;;23.23;;
28623;SDS011;15813;46.932;19.658;2022-11-04T05:50:12;50.60;;;24.52;;
28623;SDS011;15813;46.932;19.658;2022-11-04T05:52:37;51.38;;;24.70;;
28623;SDS011;15813;46.932;19.658;2022-11-04T05:55:02;46.92;;;23.85;;
28623;SDS011;15813;46.932;19.658;2022-11-04T05:57:27;49.45;;;23.98;;
28623;SDS011;15813;46.932;19.658;2022-11-04T05:59:53;45.20;;;23.77;;
28623;SDS011;15813;46.932;19.658;2022-11-04T06:02:18;46.80;;;21.67;;
28623;SDS011;15813;46.932;19.658;2022-11-04T06:04:43;45.20;;;24.40;;
28623;SDS011;15813;46.932;19.658;2022-11-04T06:07:08;45.37;;;22.97;;
28623;SDS011;15813;46.932;19.658;2022-11-04T06:09:34;47.10;;;23.27;;
28623;SDS011;15813;46.932;19.658;2022-11-04T06:12:05;41.55;;;21.88;;
28623;SDS011;15813;46.932;19.658;2022-11-04T06:14:31;50.00;;;21.83;;
28623;SDS011;15813;46.932;19.658;2022-11-04T06:16:56;44.37;;;22.27;;
28623;SDS011;15813;46.932;19.658;2022-11-04T06:19:21;46.53;;;23.75;;
28623;SDS011;15813;46.932;19.658;2022-11-04T06:21:46;38.45;;;20.67;;
28623;SDS011;15813;46.932;19.658;2022-11-04T06:24:12;41.38;;;21.38;;
28623;SDS011;15813;46.932;19.658;2022-11-04T06:26:37;49.42;;;23.65;;
28623;SDS011;15813;46.932;19.658;2022-11-04T06:29:03;44.55;;;22.05;;
28623;SDS011;15813;46.932;19.658;2022-11-04T06:31:28;49.47;;;22.83;;
28623;SDS011;15813;46.932;19.658;2022-11-04T06:33:54;46.10;;;24.50;;
28623;SDS011;15813;46.932;19.658;2022-11-04T06:36:19;41.72;;;22.88;;
28623;SDS011;15813;46.932;19.658;2022-11-04T06:38:44;49.03;;;21.98;;
28623;SDS011;15813;46.932;19.658;2022-11-04T06:41:11;39.20;;;20.30;;
28623;SDS011;15813;46.932;19.658;2022-11-04T06:43:36;37.92;;;20.92;;
28623;SDS011;15813;46.932;19.658;2022-11-04T06:46:02;40.47;;;21.13;;
28623;SDS011;15813;46.932;19.658;2022-11-04T06:48:28;39.45;;;20.08;;
28623;SDS011;15813;46.932;19.658;2022-11-04T06:50:57;38.85;;;20.70;;
28623;SDS011;15813;46.932;19.658;2022-11-04T06:53:23;37.38;;;20.00;;
28623;SDS011;15813;46.932;19.658;2022-11-04T06:55:48;37.35;;;19.40;;
28623;SDS011;15813;46.932;19.658;2022-11-04T06:58:13;40.58;;;22.35;;
28623;SDS011;15813;46.932;19.658;2022-11-04T07:00:38;46.58;;;21.05;;
28623;SDS011;15813;46.932;19.658;2022-11-04T07:03:04;36.70;;;19.80;;
28623;SDS011;15813;46.932;19.658;2022-11-04T07:05:32;35.63;;;18.88;;
28623;SDS011;15813;46.932;19.658;2022-11-04T07:07:57;38.38;;;20.30;;
28623;SDS011;15813;46.932;19.658;2022-11-04T07:10:22;35.88;;;18.63;;
28623;SDS011;15813;46.932;19.658;2022-11-04T07:12:48;33.50;;;19.00;;
28623;SDS011;15813;46.932;19.658;2022-11-04T07:15:13;40.67;;;19.63;;
28623;SDS011;15813;46.932;19.658;2022-11-04T07:17:38;38.55;;;18.20;;
28623;SDS011;15813;46.932;19.658;2022-11-04T07:20:04;38.92;;;23.23;;
28623;SDS011;15813;46.932;19.658;2022-11-04T07:22:29;38.85;;;21.08;;
28623;SDS011;15813;46.932;19.658;2022-11-04T07:24:55;89.25;;;24.02;;
28623;SDS011;15813;46.932;19.658;2022-11-04T07:27:20;34.25;;;17.70;;
28623;SDS011;15813;46.932;19.658;2022-11-04T07:32:48;42.45;;;18.23;;
28623;SDS011;15813;46.932;19.658;2022-11-04T07:35:13;33.97;;;18.95;;
28623;SDS011;15813;46.932;19.658;2022-11-04T07:37:39;32.05;;;16.80;;
28623;SDS011;15813;46.932;19.658;2022-11-04T07:40:04;31.10;;;17.08;;
28623;SDS011;15813;46.932;19.658;2022-11-04T07:42:30;36.00;;;20.48;;
28623;SDS011;15813;46.932;19.658;2022-11-04T07:44:55;32.67;;;14.73;;
28623;SDS011;15813;46.932;19.658;2022-11-04T07:47:21;38.47;;;19.88;;
28623;SDS011;15813;46.932;19.658;2022-11-04T07:49:46;30.27;;;18.20;;
28623;SDS011;15813;46.932;19.658;2022-11-04T07:52:12;40.50;;;19.20;;
28623;SDS011;15813;46.932;19.658;2022-11-04T07:54:37;38.00;;;19.35;;
28623;SDS011;15813;46.932;19.658;2022-11-04T07:57:03;35.67;;;18.63;;
28623;SDS011;15813;46.932;19.658;2022-11-04T07:59:28;34.40;;;19.17;;
28623;SDS011;15813;46.932;19.658;2022-11-04T08:01:53;39.42;;;21.38;;
28623;SDS011;15813;46.932;19.658;2022-11-04T08:04:19;42.97;;;21.45;;
28623;SDS011;15813;46.932;19.658;2022-11-04T08:06:44;40.63;;;21.55;;
28623;SDS011;15813;46.932;19.658;2022-11-04T08:09:09;35.17;;;19.77;;
28623;SDS011;15813;46.932;19.658;2022-11-04T08:11:35;41.55;;;22.00;;
28623;SDS011;15813;46.932;19.658;2022-11-04T08:14:02;628.90;;;348.20;;
28623;SDS011;15813;46.932;19.658;2022-11-04T08:16:27;484.60;;;331.50;;
28623;SDS011;15813;46.932;19.658;2022-11-04T08:18:53;553.45;;;319.35;;
28623;SDS011;15813;46.932;19.658;2022-11-04T08:21:18;588.72;;;355.27;;
28623;SDS011;15813;46.932;19.658;2022-11-04T08:23:44;714.85;;;358.13;;
28623;SDS011;15813;46.932;19.658;2022-11-04T08:26:13;526.85;;;235.13;;
28623;SDS011;15813;46.932;19.658;2022-11-04T08:28:38;44.67;;;21.42;;
28623;SDS011;15813;46.932;19.658;2022-11-04T08:31:05;40.28;;;21.27;;
28623;SDS011;15813;46.932;19.658;2022-11-04T08:33:31;35.40;;;20.38;;
28623;SDS011;15813;46.932;19.658;2022-11-04T08:36:02;38.50;;;21.55;;
28623;SDS011;15813;46.932;19.658;2022-11-04T08:38:28;36.35;;;20.25;;
28623;SDS011;15813;46.932;19.658;2022-11-04T08:40:59;40.33;;;20.10;;
28623;SDS011;15813;46.932;19.658;2022-11-04T08:43:25;37.88;;;19.88;;
28623;SDS011;15813;46.932;19.658;2022-11-04T08:45:51;37.33;;;20.75;;
28623;SDS011;15813;46.932;19.658;2022-11-04T08:48:16;40.38;;;19.63;;
28623;SDS011;15813;46.932;19.658;2022-11-04T08:50:42;44.88;;;22.95;;
28623;SDS011;15813;46.932;19.658;2022-11-04T08:53:08;45.78;;;21.42;;
28623;SDS011;15813;46.932;19.658;2022-11-04T08:55:33;47.03;;;22.75;;
28623;SDS011;15813;46.932;19.658;2022-11-04T08:57:59;54.90;;;22.48;;
28623;SDS011;15813;46.932;19.658;2022-11-04T09:00:24;41.95;;;22.08;;
28623;SDS011;15813;46.932;19.658;2022-11-04T09:02:50;45.28;;;21.85;;
28623;SDS011;15813;46.932;19.658;2022-11-04T09:05:15;49.38;;;22.08;;
28623;SDS011;15813;46.932;19.658;2022-11-04T09:07:41;43.75;;;21.02;;
28623;SDS011;15813;46.932;19.658;2022-11-04T09:10:07;46.15;;;22.23;;
28623;SDS011;15813;46.932;19.658;2022-11-04T09:12:32;48.60;;;22.92;;
28623;SDS011;15813;46.932;19.658;2022-11-04T09:14:58;44.70;;;22.17;;
28623;SDS011;15813;46.932;19.658;2022-11-04T09:17:23;45.35;;;24.08;;
28623;SDS011;15813;46.932;19.658;2022-11-04T09:19:49;45.63;;;22.73;;
28623;SDS011;15813;46.932;19.658;2022-11-04T09:22:14;49.50;;;23.02;;
28623;SDS011;15813;46.932;19.658;2022-11-04T09:24:39;53.72;;;22.67;;
28623;SDS011;15813;46.932;19.658;2022-11-04T09:27:05;44.47;;;22.73;;
28623;SDS011;15813;46.932;19.658;2022-11-04T09:29:30;49.75;;;23.38;;
28623;SDS011;15813;46.932;19.658;2022-11-04T09:32:00;45.45;;;23.27;;
28623;SDS011;15813;46.932;19.658;2022-11-04T09:34:26;40.60;;;19.38;;
28623;SDS011;15813;46.932;19.658;2022-11-04T09:36:53;47.80;;;24.63;;
28623;SDS011;15813;46.932;19.658;2022-11-04T09:39:19;48.83;;;23.17;;
28623;SDS011;15813;46.932;19.658;2022-11-04T09:44:24;50.55;;;23.27;;
28623;SDS011;15813;46.932;19.658;2022-11-04T09:49:16;50.22;;;23.02;;
28623;SDS011;15813;46.932;19.658;2022-11-04T09:51:42;54.90;;;24.23;;
28623;SDS011;15813;46.932;19.658;2022-11-04T09:54:19;49.80;;;25.50;;
28623;SDS011;15813;46.932;19.658;2022-11-04T09:56:47;50.08;;;24.02;;
28623;SDS011;15813;46.932;19.658;2022-11-04T09:59:14;50.33;;;23.88;;
28623;SDS011;15813;46.932;19.658;2022-11-04T10:11:54;52.03;;;24.15;;
28623;SDS011;15813;46.932;19.658;2022-11-04T10:19:18;50.55;;;25.25;;
28623;SDS011;15813;46.932;19.658;2022-11-04T10:21:57;47.85;;;22.95;;
28623;SDS011;15813;46.932;19.658;2022-11-04T10:24:33;59.35;;;25.13;;
28623;SDS011;15813;46.932;19.658;2022-11-04T10:27:04;46.03;;;23.88;;
28623;SDS011;15813;46.932;19.658;2022-11-04T10:29:40;52.45;;;25.17;;
28623;SDS011;15813;46.932;19.658;2022-11-04T10:32:11;53.33;;;25.50;;
28623;SDS011;15813;46.932;19.658;2022-11-04T10:34:40;53.25;;;24.92;;
28623;SDS011;15813;46.932;19.658;2022-11-04T10:37:11;60.85;;;25.02;;
28623;SDS011;15813;46.932;19.658;2022-11-04T10:39:38;46.72;;;23.88;;
28623;SDS011;15813;46.932;19.658;2022-11-04T10:44:31;58.72;;;25.30;;
28623;SDS011;15813;46.932;19.658;2022-11-04T10:52:17;61.83;;;26.40;;
28623;SDS011;15813;46.932;19.658;2022-11-04T10:54:43;58.95;;;26.77;;
28623;SDS011;15813;46.932;19.658;2022-11-04T10:57:10;54.65;;;25.63;;
28623;SDS011;15813;46.932;19.658;2022-11-04T11:02:07;56.70;;;27.35;;
28623;SDS011;15813;46.932;19.658;2022-11-04T11:04:35;52.78;;;25.92;;
28623;SDS011;15813;46.932;19.658;2022-11-04T11:07:02;53.25;;;24.60;;
28623;SDS011;15813;46.932;19.658;2022-11-04T11:09:28;65.13;;;26.00;;
28623;SDS011;15813;46.932;19.658;2022-11-04T11:11:55;58.60;;;26.08;;
28623;SDS011;15813;46.932;19.658;2022-11-04T11:16:53;56.28;;;25.85;;
28623;SDS011;15813;46.932;19.658;2022-11-04T11:19:19;65.75;;;28.85;;
28623;SDS011;15813;46.932;19.658;2022-11-04T11:21:47;59.65;;;27.40;;
28623;SDS011;15813;46.932;19.658;2022-11-04T11:24:26;61.53;;;28.60;;
28623;SDS011;15813;46.932;19.658;2022-11-04T11:26:57;77.25;;;28.92;;
28623;SDS011;15813;46.932;19.658;2022-11-04T11:29:24;62.67;;;27.30;;
28623;SDS011;15813;46.932;19.658;2022-11-04T11:31:51;67.60;;;27.75;;
28623;SDS011;15813;46.932;19.658;2022-11-04T11:36:46;58.72;;;27.98;;
28623;SDS011;15813;46.932;19.658;2022-11-04T11:39:14;57.70;;;25.90;;
28623;SDS011;15813;46.932;19.658;2022-11-04T11:46:48;52.95;;;25.88;;
28623;SDS011;15813;46.932;19.658;2022-11-04T11:49:22;57.60;;;26.40;;
28623;SDS011;15813;46.932;19.658;2022-11-04T11:51:47;52.20;;;25.60;;
28623;SDS011;15813;46.932;19.658;2022-11-04T11:54:19;55.55;;;25.38;;
28623;SDS011;15813;46.932;19.658;2022-11-04T11:57:30;60.90;;;27.42;;
28623;SDS011;15813;46.932;19.658;2022-11-04T12:02:30;58.88;;;24.67;;
28623;SDS011;15813;46.932;19.658;2022-11-04T12:04:52;60.45;;;26.17;;
28623;SDS011;15813;46.932;19.658;2022-11-04T12:07:39;61.67;;;26.35;;
28623;SDS011;15813;46.932;19.658;2022-11-04T12:10:15;63.03;;;29.00;;
28623;SDS011;15813;46.932;19.658;2022-11-04T12:12:48;62.67;;;28.05;;
28623;SDS011;15813;46.932;19.658;2022-11-04T12:15:18;57.72;;;26.88;;
28623;SDS011;15813;46.932;19.658;2022-11-04T12:25:27;54.30;;;24.73;;
28623;SDS011;15813;46.932;19.658;2022-11-04T12:28:04;59.60;;;26.95;;
28623;SDS011;15813;46.932;19.658;2022-11-04T12:30:39;58.20;;;26.08;;
28623;SDS011;15813;46.932;19.658;2022-11-04T12:35:44;53.70;;;25.03;;
28623;SDS011;15813;46.932;19.658;2022-11-04T12:45:50;54.92;;;25.63;;
28623;SDS011;15813;46.932;19.658;2022-11-04T12:48:34;61.55;;;26.95;;
28623;SDS011;15813;46.932;19.658;2022-11-04T12:51:06;57.25;;;27.17;;
28623;SDS011;15813;46.932;19.658;2022-11-04T12:56:27;62.03;;;28.05;;
28623;SDS011;15813;46.932;19.658;2022-11-04T12:59:13;59.50;;;29.70;;
28623;SDS011;15813;46.932;19.658;2022-11-04T13:06:40;63.17;;;26.50;;
28623;SDS011;15813;46.932;19.658;2022-11-04T13:10:13;54.08;;;25.20;;
28623;SDS011;15813;46.932;19.658;2022-11-04T13:12:11;56.45;;;27.85;;
28623;SDS011;15813;46.932;19.658;2022-11-04T13:17:24;52.03;;;24.52;;
28623;SDS011;15813;46.932;19.658;2022-11-04T13:19:51;61.53;;;25.98;;
28623;SDS011;15813;46.932;19.658;2022-11-04T13:22:19;50.47;;;23.73;;
28623;SDS011;15813;46.932;19.658;2022-11-04T13:27:36;60.40;;;26.55;;
28623;SDS011;15813;46.932;19.658;2022-11-04T13:32:30;56.13;;;25.63;;
28623;SDS011;15813;46.932;19.658;2022-11-04T13:37:58;55.23;;;25.07;;
28623;SDS011;15813;46.932;19.658;2022-11-04T13:40:17;54.40;;;25.58;;
28623;SDS011;15813;46.932;19.658;2022-11-04T13:45:18;56.20;;;26.83;;
28623;SDS011;15813;46.932;19.658;2022-11-04T13:47:48;53.75;;;25.77;;
28623;SDS011;15813;46.932;19.658;2022-11-04T13:52:59;61.83;;;28.38;;
28623;SDS011;15813;46.932;19.658;2022-11-04T13:55:25;60.47;;;27.08;;
28623;SDS011;15813;46.932;19.658;2022-11-04T13:57:51;53.42;;;25.85;;
28623;SDS011;15813;46.932;19.658;2022-11-04T14:00:19;51.15;;;26.63;;
28623;SDS011;15813;46.932;19.658;2022-11-04T14:02:46;63.00;;;29.48;;
28623;SDS011;15813;46.932;19.658;2022-11-04T14:15:58;62.85;;;27.65;;
28623;SDS011;15813;46.932;19.658;2022-11-04T14:18:28;53.70;;;26.27;;
28623;SDS011;15813;46.932;19.658;2022-11-04T14:21:15;57.40;;;26.77;;
28623;SDS011;15813;46.932;19.658;2022-11-04T14:23:40;55.92;;;26.58;;
28623;SDS011;15813;46.932;19.658;2022-11-04T14:26:07;52.13;;;25.75;;
28623;SDS011;15813;46.932;19.658;2022-11-04T14:28:32;67.35;;;27.30;;
28623;SDS011;15813;46.932;19.658;2022-11-04T14:31:06;56.80;;;25.85;;
28623;SDS011;15813;46.932;19.658;2022-11-04T14:33:34;51.55;;;25.80;;
28623;SDS011;15813;46.932;19.658;2022-11-04T14:38:41;70.03;;;27.17;;
28623;SDS011;15813;46.932;19.658;2022-11-04T14:43:36;77.03;;;26.10;;
28623;SDS011;15813;46.932;19.658;2022-11-04T14:46:03;83.25;;;37.50;;
28623;SDS011;15813;46.932;19.658;2022-11-04T14:48:28;67.88;;;27.67;;
28623;SDS011;15813;46.932;19.658;2022-11-04T14:50:54;57.63;;;28.35;;
28623;SDS011;15813;46.932;19.658;2022-11-04T14:53:25;62.38;;;26.77;;
28623;SDS011;15813;46.932;19.658;2022-11-04T14:56:14;49.75;;;23.55;;
28623;SDS011;15813;46.932;19.658;2022-11-04T14:58:37;67.60;;;26.15;;
28623;SDS011;15813;46.932;19.658;2022-11-04T15:01:03;60.13;;;26.10;;
28623;SDS011;15813;46.932;19.658;2022-11-04T15:03:30;59.35;;;26.92;;
28623;SDS011;15813;46.932;19.658;2022-11-04T15:06:01;61.03;;;27.25;;
28623;SDS011;15813;46.932;19.658;2022-11-04T15:10:56;51.93;;;26.03;;
28623;SDS011;15813;46.932;19.658;2022-11-04T15:13:23;53.42;;;27.30;;
28623;SDS011;15813;46.932;19.658;2022-11-04T15:15:48;54.33;;;24.97;;
28623;SDS011;15813;46.932;19.658;2022-11-04T15:18:24;53.42;;;25.00;;
28623;SDS011;15813;46.932;19.658;2022-11-04T15:20:58;60.10;;;29.85;;
28623;SDS011;15813;46.932;19.658;2022-11-04T15:23:31;67.32;;;31.52;;
28623;SDS011;15813;46.932;19.658;2022-11-04T15:25:57;75.10;;;30.13;;
28623;SDS011;15813;46.932;19.658;2022-11-04T15:28:33;77.60;;;31.73;;
28623;SDS011;15813;46.932;19.658;2022-11-04T15:33:31;62.83;;;27.20;;
28623;SDS011;15813;46.932;19.658;2022-11-04T15:38:25;69.53;;;28.20;;
28623;SDS011;15813;46.932;19.658;2022-11-04T15:40:52;54.45;;;27.65;;
28623;SDS011;15813;46.932;19.658;2022-11-04T15:43:17;57.38;;;29.85;;
28623;SDS011;15813;46.932;19.658;2022-11-04T15:45:49;60.70;;;27.83;;
28623;SDS011;15813;46.932;19.658;2022-11-04T15:48:22;62.75;;;28.50;;
28623;SDS011;15813;46.932;19.658;2022-11-04T15:53:19;62.58;;;27.05;;
28623;SDS011;15813;46.932;19.658;2022-11-04T15:55:46;59.23;;;27.37;;
28623;SDS011;15813;46.932;19.658;2022-11-04T15:58:11;60.85;;;28.95;;
28623;SDS011;15813;46.932;19.658;2022-11-04T16:00:38;56.42;;;28.73;;
28623;SDS011;15813;46.932;19.658;2022-11-04T16:03:03;59.88;;;28.42;;
28623;SDS011;15813;46.932;19.658;2022-11-04T16:07:55;60.58;;;28.38;;
28623;SDS011;15813;46.932;19.658;2022-11-04T16:10:25;63.92;;;29.95;;
28623;SDS011;15813;46.932;19.658;2022-11-04T16:15:42;62.97;;;28.92;;
28623;SDS011;15813;46.932;19.658;2022-11-04T16:18:20;59.70;;;28.10;;
28623;SDS011;15813;46.932;19.658;2022-11-04T16:20:47;57.83;;;30.05;;
28623;SDS011;15813;46.932;19.658;2022-11-04T16:23:14;55.58;;;27.88;;
28623;SDS011;15813;46.932;19.658;2022-11-04T16:25:42;60.75;;;30.45;;
28623;SDS011;15813;46.932;19.658;2022-11-04T16:28:15;63.67;;;29.85;;
28623;SDS011;15813;46.932;19.658;2022-11-04T16:30:54;61.17;;;34.70;;
28623;SDS011;15813;46.932;19.658;2022-11-04T16:33:19;60.38;;;32.53;;
28623;SDS011;15813;46.932;19.658;2022-11-04T16:35:44;61.77;;;32.30;;
28623;SDS011;15813;46.932;19.658;2022-11-04T16:38:09;66.07;;;33.93;;
28623;SDS011;15813;46.932;19.658;2022-11-04T16:40:35;66.43;;;33.13;;
28623;SDS011;15813;46.932;19.658;2022-11-04T16:43:00;66.82;;;32.95;;
28623;SDS011;15813;46.932;19.658;2022-11-04T16:45:26;63.67;;;32.85;;
28623;SDS011;15813;46.932;19.658;2022-11-04T16:47:54;63.38;;;32.25;;
28623;SDS011;15813;46.932;19.658;2022-11-04T16:50:19;66.03;;;30.20;;
28623;SDS011;15813;46.932;19.658;2022-11-04T16:52:44;66.75;;;30.15;;
28623;SDS011;15813;46.932;19.658;2022-11-04T16:55:10;69.50;;;30.95;;
28623;SDS011;15813;46.932;19.658;2022-11-04T16:57:36;52.30;;;27.77;;
28623;SDS011;15813;46.932;19.658;2022-11-04T17:00:01;54.05;;;28.17;;